Latest Weather Observations for Horn Island

IDQ60801

Issued at 8:22 pm EST Thursday 21 February 2019 (issued every 10 minutes, with the page automatically refreshed every 10 minutes)

About weather observations | Map of weather stations | Latest weather observations for QLD | Other Formats
Station Details ID: 027058 Name: HORN ISLAND Lat: -10.58 Lon: 142.29 Height: 4.0 m
Data from the previous 72 hours. | See also: Recent months at Horn Island
Date/Time
EST
Temp
°C
App
Temp
°C
Dew
Point
°C
Rel
Hum
%
Delta-T
°C
Wind Press
QNH
hPa
Press
MSL
hPa
Rain since
9am
mm
Dir  Spd
km/h
Gust
km/h
Spd
kts
Gust
kts
21/08:00pm 28.5 32.5 25.1 82 2.4 WSW 13 20 7 11 1009.8 - 0.0
21/07:30pm 28.6 33.0 25.0 81 2.5 W 11 19 6 10 1009.6 - 0.0
21/07:00pm 28.6 31.2 24.6 79 2.8 WSW 19 30 10 16 1009.3 - 0.0
21/06:30pm 29.2 32.6 25.2 79 2.8 WNW 17 28 9 15 1008.9 - 0.0
21/06:00pm 29.8 32.5 25.1 76 3.3 WNW 20 32 11 17 1007.9 1007.9 0.0
21/05:30pm 30.1 32.9 25.2 75 3.5 W 20 32 11 17 1007.8 - 0.0
21/05:00pm 29.6 31.9 25.1 77 3.2 WNW 22 35 12 19 1008.1 - 0.0
21/04:30pm 29.8 32.0 24.9 75 3.4 WNW 22 32 12 17 1008.0 - 0.0
21/04:00pm 30.3 33.0 25.1 73 3.7 NW 20 33 11 18 1008.2 - 0.0
21/03:30pm 30.5 32.7 24.9 72 3.9 NW 22 33 12 18 1008.5 - 0.0
21/03:00pm 30.5 32.8 25.1 73 3.8 NW 22 33 12 18 1008.9 1008.9 0.0
21/02:30pm 30.4 32.8 25.2 74 3.7 NW 22 32 12 17 1009.2 - 0.0
21/02:00pm 30.4 32.0 24.5 70 4.1 NW 24 33 13 18 1009.7 - 0.0
21/01:30pm 30.9 33.6 25.0 71 4.2 WNW 20 28 11 15 1010.1 - 0.0
21/01:00pm 30.3 32.1 24.9 73 3.8 NW 24 35 13 19 1010.9 - 0.0
21/12:30pm 30.4 32.2 24.8 72 3.9 WNW 24 37 13 20 1011.2 - 0.0
21/12:00pm 29.7 32.1 24.6 74 3.6 WNW 20 32 11 17 1011.7 1011.7 0.0
21/11:30am 30.3 32.2 24.4 70 4.1 NW 22 32 12 17 1011.7 - 0.0
21/11:00am 30.2 32.4 24.8 73 3.8 WNW 22 32 12 17 1011.8 - 0.0
21/10:30am 30.4 32.8 25.2 74 3.7 WNW 22 32 12 17 1011.9 - 0.0
21/10:00am 29.3 31.5 24.8 77 3.1 NW 22 37 12 20 1012.0 - 0.0
21/09:30am 29.0 30.9 25.0 79 2.8 NW 24 35 13 19 1011.9 - 0.0
21/09:00am 29.3 31.0 24.6 76 3.3 NW 24 35 13 19 1011.9 1011.9 13.2
21/08:30am 29.0 31.0 24.6 77 3.1 NW 22 32 12 17 1011.8 - 13.2
21/08:00am 28.6 31.0 24.6 79 2.8 NW 20 30 11 16 1011.5 - 13.2
21/07:30am 28.3 30.8 24.7 81 2.5 NW 20 30 11 16 1011.1 - 13.2
21/07:00am 27.8 29.7 24.4 82 2.4 NW 22 33 12 18 1011.1 - 13.2
21/06:30am 28.2 30.9 24.8 82 2.4 NW 19 30 10 16 1010.6 - 13.2
21/06:00am 28.3 31.7 24.7 81 2.5 WNW 15 22 8 12 1010.4 1010.4 13.2
21/05:30am 28.2 32.2 24.4 80 2.6 WNW 11 15 6 8 1010.2 - 13.2
21/05:00am 28.3 32.0 24.5 80 2.6 WNW 13 17 7 9 1010.1 - 13.2
21/04:30am 28.3 32.4 24.5 80 2.6 WNW 11 17 6 9 1009.7 - 13.2
21/04:00am 28.5 32.2 24.5 79 2.8 W 13 19 7 10 1009.3 - 13.2
21/03:30am 28.6 32.5 24.8 80 2.7 W 13 20 7 11 1009.3 - 13.2
21/03:00am 28.5 32.3 24.7 80 2.7 WNW 13 19 7 10 1009.7 1009.7 13.2
21/02:30am 28.7 32.2 24.9 80 2.7 WNW 15 24 8 13 1009.8 - 13.2
21/02:00am 28.6 32.8 24.8 80 2.7 W 11 17 6 9 1009.9 - 13.2
21/01:30am 28.5 32.3 24.7 80 2.7 W 13 20 7 11 1010.1 - 13.2
21/01:00am 28.5 32.7 24.7 80 2.7 W 11 17 6 9 1010.5 - 13.2
21/12:30am 28.8 32.7 24.8 79 2.8 W 13 24 7 13 1011.0 - 13.2
21/12:00am 28.8 32.5 24.6 78 2.9 W 13 20 7 11 1011.1 1011.1 13.2
 
Date/Time
EST
Temp
°C
App
Temp
°C
Dew
Point
°C
Rel
Hum
%
Delta-T
°C
Wind Press
QNH
hPa
Press
MSL
hPa
Rain since
9am
mm
Dir  Spd
km/h
Gust
km/h
Spd
kts
Gust
kts
20/11:30pm 28.7 32.5 24.7 79 2.8 W 13 20 7 11 1011.3 - 13.2
20/11:00pm 28.4 32.9 24.6 80 2.6 W 9 15 5 8 1011.5 - 13.2
20/10:30pm 28.5 32.1 24.3 78 2.9 WSW 13 17 7 9 1011.5 - 13.2
20/10:00pm 28.7 32.5 24.0 76 3.3 W 11 17 6 9 1011.3 - 13.2
20/09:30pm 28.9 32.0 24.2 76 3.3 W 15 26 8 14 1011.1 - 13.2
20/09:00pm 29.0 31.7 24.1 75 3.4 W 17 28 9 15 1010.9 1010.9 13.2
20/08:30pm 29.1 32.3 24.4 76 3.3 W 15 26 8 14 1010.6 - 13.2
20/08:00pm 29.0 32.0 24.6 77 3.1 W 17 24 9 13 1010.3 - 13.2
20/07:30pm 28.9 31.6 24.2 76 3.3 W 17 30 9 16 1010.0 - 13.2
20/07:00pm 28.7 32.0 24.5 78 2.9 W 15 24 8 13 1009.9 - 13.2
20/06:30pm 29.1 31.6 23.8 73 3.7 WNW 17 26 9 14 1009.4 - 13.2
20/06:00pm 29.7 32.7 25.2 77 3.2 WNW 19 28 10 15 1009.1 1009.1 13.2
20/05:30pm 30.2 32.7 24.8 73 3.8 W 20 32 11 17 1008.9 - 13.2
20/05:00pm 30.3 33.4 25.4 75 3.5 W 19 26 10 14 1008.7 - 13.2
20/04:30pm 29.8 31.9 24.7 74 3.6 WNW 22 33 12 18 1008.9 - 13.2
20/04:00pm 30.1 33.3 25.8 78 3.1 NW 20 30 11 16 1009.1 - 13.0
20/03:30pm 29.4 32.3 26.0 82 2.4 WNW 22 33 12 18 1009.4 - 13.0
20/03:00pm 28.4 32.0 25.6 85 2.0 WNW 17 24 9 13 1009.7 1009.7 13.0
20/02:30pm 26.8 31.8 24.8 89 1.4 W 7 9 4 5 1010.0 - 13.0
20/02:17pm 25.5 29.7 23.2 87 1.6 SSE 6 9 3 5 1010.1 - 13.0
20/02:00pm 24.5 26.5 22.2 87 1.5 SSW 15 30 8 16 1010.4 - 12.4
20/01:48pm 24.6 24.0 21.3 82 2.2 W 26 44 14 24 1010.8 - 1.2
20/01:30pm 28.5 29.6 23.0 72 3.8 WSW 22 32 12 17 1010.9 - 0.0
20/01:00pm 29.4 33.5 25.8 81 2.6 NW 15 26 8 14 1011.2 - 0.0
20/12:30pm 27.9 30.1 23.9 79 2.8 NW 19 30 10 16 1011.7 - 0.0
20/12:00pm 29.8 34.1 25.5 78 3.0 WNW 13 24 7 13 1012.0 1012.0 0.0
20/11:30am 27.8 30.2 23.6 78 2.9 NW 17 26 9 14 1012.5 - 0.0
20/11:00am 28.6 32.2 24.4 78 2.9 WNW 13 20 7 11 1012.7 - 0.0
20/10:30am 29.6 32.3 24.7 75 3.4 NNW 19 26 10 14 1012.7 - 0.0
20/10:00am 29.8 33.1 25.1 76 3.3 NNW 17 24 9 13 1013.1 - 0.0
20/09:30am 29.6 32.6 24.7 75 3.4 NW 17 24 9 13 1013.2 - 0.0
20/09:00am 29.0 32.4 24.6 77 3.1 NW 15 24 8 13 1012.8 1012.8 0.2
20/08:30am 28.8 32.3 24.8 79 2.8 WNW 15 20 8 11 1012.7 - 0.2
20/08:00am 28.4 32.1 24.6 80 2.6 NW 13 19 7 10 1012.8 - 0.2
20/07:30am 28.1 32.0 24.3 80 2.6 WNW 11 20 6 11 1012.5 - 0.2
20/07:00am 27.9 31.6 24.5 82 2.4 NW 13 19 7 10 1012.1 - 0.2
20/06:30am 27.7 32.1 24.5 83 2.2 WNW 9 15 5 8 1011.9 - 0.2
20/06:00am 27.8 32.0 24.8 84 2.1 WNW 11 17 6 9 1011.9 1011.9 0.2
20/05:30am 26.7 31.4 24.0 85 1.9 WSW 6 7 3 4 1011.5 - 0.2
20/05:00am 27.2 31.9 24.3 84 2.0 W 7 9 4 5 1011.1 - 0.2
20/04:30am 27.9 31.6 24.5 82 2.4 W 13 26 7 14 1011.1 - 0.2
20/04:00am 27.6 32.2 24.8 85 2.0 WNW 9 13 5 7 1010.9 - 0.2
20/03:30am 27.1 31.8 24.9 88 1.5 W 9 13 5 7 1011.0 - 0.2
20/03:00am 26.3 30.4 24.0 87 1.6 WNW 9 11 5 6 1010.8 1010.8 0.2
20/02:30am 25.9 30.1 23.4 86 1.7 WSW 7 9 4 5 1011.2 - 0.2
20/02:00am 26.7 28.6 23.4 82 2.3 WSW 19 26 10 14 1011.6 - 0.0
20/01:30am 27.8 32.7 24.6 83 2.2 W 7 9 4 5 1011.7 - 0.0
20/01:00am 28.1 32.5 24.5 81 2.5 WNW 9 15 5 8 1012.1 - 0.0
20/12:30am 28.2 32.7 24.6 81 2.5 WNW 9 17 5 9 1012.3 - 0.0
20/12:00am 28.4 32.9 24.6 80 2.6 WNW 9 17 5 9 1012.5 1012.5 0.0
 
Date/Time
EST
Temp
°C
App
Temp
°C
Dew
Point
°C
Rel
Hum
%
Delta-T
°C
Wind Press
QNH
hPa
Press
MSL
hPa
Rain since
9am
mm
Dir  Spd
km/h
Gust
km/h
Spd
kts
Gust
kts
19/11:30pm 28.5 32.7 24.7 80 2.7 WNW 11 17 6 9 1012.7 - 0.0
19/11:00pm 28.3 32.6 24.3 79 2.8 WNW 9 15 5 8 1012.7 - 0.0
19/10:30pm 28.5 32.8 24.3 78 2.9 WNW 9 15 5 8 1012.6 - 0.0
19/10:00pm 28.5 32.9 24.5 79 2.8 WNW 9 13 5 7 1012.3 - 0.0
19/09:30pm 28.2 32.8 24.2 79 2.8 WNW 7 9 4 5 1012.0 - 0.0
19/09:00pm 28.4 32.9 24.0 77 3.0 W 7 13 4 7 1011.7 1011.7 0.0
19/08:30pm 28.6 32.9 24.2 77 3.1 W 9 13 5 7 1011.5 - 0.0
19/08:00pm 28.8 33.0 24.1 76 3.3 W 9 15 5 8 1011.2 - 0.0
19/07:30pm 28.7 32.3 23.8 75 3.4 W 11 15 6 8 1010.7 - 0.0
19/07:00pm 29.0 32.3 23.9 74 3.5 W 13 19 7 10 1010.1 - 0.0
19/06:30pm 29.7 32.8 24.1 72 3.9 W 15 24 8 13 1009.6 - 0.0
19/06:00pm 30.5 33.4 23.9 68 4.6 W 15 22 8 12 1009.0 1009.0 0.0
19/05:30pm 30.7 33.8 24.1 68 4.6 W 15 24 8 13 1008.7 - 0.0
19/05:00pm 30.9 33.2 23.5 64 5.1 W 17 22 9 12 1008.4 - 0.0
19/04:30pm 31.2 33.6 23.6 64 5.3 WNW 17 26 9 14 1008.2 - 0.0
19/04:00pm 31.2 33.0 23.3 63 5.4 WNW 19 26 10 14 1008.2 - 0.0
19/03:30pm 31.5 34.1 23.9 64 5.3 WNW 17 28 9 15 1008.3 - 0.0
19/03:00pm 31.2 34.0 24.3 66 4.8 W 17 24 9 13 1008.7 1008.7 0.0
19/02:30pm 31.5 33.3 23.3 61 5.7 WNW 19 24 10 13 1009.1 - 0.0
19/02:00pm 32.0 35.3 25.1 67 4.9 W 17 24 9 13 1009.5 - 0.0
19/01:30pm 31.4 33.9 23.8 64 5.3 WNW 17 26 9 14 1010.1 - 0.0
19/01:00pm 31.5 33.9 23.6 63 5.5 WNW 17 24 9 13 1010.7 - 0.0
19/12:30pm 30.9 33.6 24.1 67 4.7 NNW 17 22 9 12 1011.1 - 0.0
19/12:00pm 30.7 33.6 23.9 67 4.7 NW 15 22 8 12 1011.7 1011.7 0.0
19/11:30am 31.2 34.5 25.1 70 4.3 NW 17 22 9 12 1012.0 - 0.0
19/11:00am 30.7 33.6 24.4 69 4.4 NNW 17 26 9 14 1012.1 - 0.0
19/10:30am 30.9 34.9 25.0 71 4.2 NNW 13 20 7 11 1012.2 - 0.0
19/10:00am 30.2 33.6 24.1 70 4.2 NNW 13 19 7 10 1012.2 - 0.0
19/09:30am 29.9 33.5 23.8 70 4.2 NW 11 19 6 10 1012.3 - 0.0
19/09:00am 29.7 33.9 24.1 72 3.9 W 9 13 5 7 1012.3 1012.3 0.2
19/08:30am 29.3 34.1 25.1 78 2.9 WNW 9 15 5 8 1012.0 - 0.2
19/08:00am 28.5 33.7 25.1 82 2.4 WNW 7 11 4 6 1011.7 - 0.2
19/07:30am 27.4 32.0 24.8 86 1.8 WNW 9 13 5 7 1011.3 - 0.2
19/07:00am 26.4 31.2 24.4 89 1.4 W 7 9 4 5 1011.1 - 0.2
19/06:30am 26.3 31.1 24.5 90 1.2 WNW 7 11 4 6 1011.1 - 0.2
19/06:00am 26.2 30.6 24.4 90 1.2 WNW 9 15 5 8 1011.0 1011.0 0.2
19/05:30am 25.9 30.0 23.9 89 1.4 NNW 9 13 5 7 1010.7 - 0.2
19/05:00am 25.7 29.5 24.1 91 1.1 WNW 11 17 6 9 1010.5 - 0.2
19/04:30am 25.6 31.4 24.0 91 1.1 CALM 0 0 0 0 1010.3 - 0.2
19/04:00am 25.6 31.4 24.0 91 1.1 CALM 0 0 0 0 1010.3 - 0.2
19/03:30am 25.5 31.3 23.9 91 1.1 CALM 0 0 0 0 1010.5 - 0.2
19/03:00am 25.6 31.4 24.0 91 1.1 CALM 0 0 0 0 1010.7 1010.7 0.2
19/02:30am 25.8 31.6 24.0 90 1.2 CALM 0 0 0 0 1010.9 - 0.2
19/02:00am 25.9 31.8 24.1 90 1.2 CALM 0 0 0 0 1011.2 - 0.2
19/01:30am 25.9 31.8 24.1 90 1.2 CALM 0 0 0 0 1011.6 - 0.2
19/01:00am 26.0 31.1 24.0 89 1.4 SSE 4 6 2 3 1012.0 - 0.2
19/12:30am 26.1 32.0 24.1 89 1.4 CALM 0 0 0 0 1012.3 - 0.2
19/12:00am 26.4 32.4 24.2 88 1.5 CALM 0 0 0 0 1012.5 1012.5 0.2
 
Date/Time
EST
Temp
°C
App
Temp
°C
Dew
Point
°C
Rel
Hum
%
Delta-T
°C
Wind Press
QNH
hPa
Press
MSL
hPa
Rain since
9am
mm
Dir  Spd
km/h
Gust
km/h
Spd
kts
Gust
kts
18/11:30pm 26.6 31.5 24.4 88 1.5 SSE 6 7 3 4 1012.4 - 0.2
18/11:00pm 26.7 32.4 24.4 87 1.6 SSE 2 6 1 3 1012.2 - 0.2
18/10:30pm 26.5 31.3 24.2 87 1.6 SSW 6 7 3 4 1012.0 - 0.2
18/10:00pm 26.8 31.7 24.3 86 1.7 W 6 7 3 4 1011.7 - 0.2
18/09:30pm 27.2 32.2 24.5 85 1.9 W 6 7 3 4 1011.4 - 0.2
18/09:00pm 27.2 31.7 23.9 82 2.3 NW 7 9 4 5 1011.0 1011.0 0.2
18/08:30pm 27.4 32.1 24.0 82 2.3 W 6 7 3 4 1010.5 - 0.2

Other formats

Comma delimited format used in spreadsheet applications
http://www.bom.gov.au/fwo/IDQ60801/IDQ60801.94174.axf

JavaScript Object Notation format (JSON) in row-major order
http://www.bom.gov.au/fwo/IDQ60801/IDQ60801.94174.json

Data quality

Most of these data are generated automatically and are frequently updated. Quality checks on data are not normally performed. It is possible for incorrect values to appear. Refer to information at About Latest Weather Observations and please check the disclaimer before using these data.